Granger, Minnesota
Current Conditions -  °F | °C
As of 8:35 PM on Sunday 25 Jan 2015 (Local Time) from KFKA Reporting Station
Overcast Overcast  
Wind Chill: 24°   Ceiling: 2000
Heat Index: 24°   Visibility: 10mi
Dew Point: 18°   Wind: 0mph
Humidity: 78%   Direction: NA
Pressure: 30.04"   Gusts: NA
Location:  43.57°N, 92.0698°W
Report Text: KFKA 260235Z AUTO 00000KT 10SM OVC020 M05/M08 A3004 RMK AO2 T10471080
Loading
Personal Weather Stations






























Interactive Weather Map New forecast layout! Learn more

10-Day Weather Forecast

Advertisements
Track Severe Weather on mobile